createdAt,value
2022-08-08T00:00:56.316Z,2.35
2022-08-08T00:03:01.655Z,2.38
2022-08-08T00:06:03.421Z,2.28
2022-08-08T00:08:34.802Z,2.78
2022-08-08T00:11:13.187Z,2.38
2022-08-08T00:14:17.044Z,2.33
2022-08-08T00:16:56.432Z,2.55
2022-08-08T00:19:28.262Z,2.38
2022-08-08T00:22:02.667Z,2.63
2022-08-08T00:24:35.228Z,2.47
2022-08-08T00:27:06.406Z,2.20
2022-08-08T00:29:44.754Z,2.40
2022-08-08T00:32:38.810Z,1.80
2022-08-08T00:35:26.695Z,1.80
2022-08-08T00:38:31.131Z,1.92
2022-08-08T00:41:21.906Z,1.80
2022-08-08T00:44:01.751Z,1.80
2022-08-08T00:46:56.968Z,1.90
2022-08-08T00:49:27.182Z,1.80
2022-08-08T00:52:02.529Z,2.00
2022-08-08T00:54:43.247Z,1.80
2022-08-08T00:57:23.671Z,1.83
2022-08-08T00:59:57.016Z,2.00
2022-08-08T01:03:59.345Z,1.98
2022-08-08T01:05:42.248Z,1.95
2022-08-08T01:08:28.767Z,1.90
2022-08-08T01:11:16.143Z,2.13
2022-08-08T01:13:58.339Z,2.35
2022-08-08T01:16:38.098Z,2.72
2022-08-08T01:19:13.600Z,2.25
2022-08-08T01:22:12.993Z,2.13
2022-08-08T01:24:54.359Z,2.20
2022-08-08T01:27:33.070Z,2.00
2022-08-08T01:30:14.383Z,1.83
2022-08-08T01:32:44.512Z,2.60
2022-08-08T01:35:30.192Z,2.30
2022-08-08T01:38:16.733Z,2.50
2022-08-08T01:40:57.804Z,2.08
2022-08-08T01:43:43.846Z,2.20
2022-08-08T01:46:26.983Z,2.00
2022-08-08T01:49:37.940Z,2.20
2022-08-08T01:52:56.283Z,2.33
2022-08-08T01:56:30.416Z,2.40
2022-08-08T01:58:38.365Z,2.13
2022-08-08T02:01:22.179Z,2.28
2022-08-08T02:04:03.151Z,2.22
2022-08-08T02:06:32.358Z,2.35
2022-08-08T02:09:18.601Z,2.35
2022-08-08T02:12:19.432Z,2.08
2022-08-08T02:14:58.775Z,2.40
2022-08-08T02:17:36.471Z,2.60
2022-08-08T02:21:01.063Z,2.45
2022-08-08T02:23:31.889Z,2.25
2022-08-08T02:26:10.245Z,2.20
2022-08-08T02:28:41.379Z,2.63
2022-08-08T02:31:54.173Z,2.50
2022-08-08T02:34:27.711Z,2.60
2022-08-08T02:37:09.924Z,2.55
2022-08-08T02:40:09.507Z,2.10
2022-08-08T02:42:48.031Z,2.25
2022-08-08T02:45:51.123Z,2.40
2022-08-08T02:48:42.630Z,2.65
2022-08-08T02:51:30.588Z,2.20
2022-08-08T02:54:18.015Z,2.10
2022-08-08T02:56:50.946Z,2.45
2022-08-08T02:59:40.343Z,2.30
2022-08-08T03:02:39.526Z,2.65
2022-08-08T03:05:20.870Z,2.38
2022-08-08T03:07:57.543Z,1.90
2022-08-08T03:10:53.773Z,2.58
2022-08-08T03:15:57.991Z,1.98
2022-08-08T03:16:48.657Z,2.10
2022-08-08T03:19:24.646Z,2.42
2022-08-08T03:21:58.670Z,2.00
2022-08-08T03:24:28.774Z,2.40
2022-08-08T03:27:27.113Z,2.17
2022-08-08T03:29:59.405Z,2.13
2022-08-08T03:32:53.406Z,2.33
2022-08-08T03:35:30.164Z,2.20
2022-08-08T03:38:58.247Z,2.30
2022-08-08T03:40:52.940Z,2.67
2022-08-08T03:43:20.436Z,2.25
2022-08-08T03:46:05.853Z,2.25
2022-08-08T03:49:56.254Z,2.55
2022-08-08T03:51:26.475Z,2.20
2022-08-08T03:54:08.508Z,2.17
2022-08-08T03:56:36.070Z,2.20
2022-08-08T03:59:04.067Z,2.50
2022-08-08T04:02:22.864Z,2.50
2022-08-08T04:04:30.472Z,2.25
2022-08-08T04:07:01.541Z,2.47
2022-08-08T04:09:59.102Z,2.30
2022-08-08T04:12:16.975Z,2.55
2022-08-08T04:14:50.695Z,2.22
2022-08-08T04:17:46.425Z,2.30
2022-08-08T04:20:06.291Z,2.33
2022-08-08T04:22:36.028Z,2.53
2022-08-08T04:25:04.235Z,2.00
2022-08-08T04:28:01.742Z,2.67
2022-08-08T04:30:19.836Z,2.35
2022-08-08T04:32:50.136Z,2.53
2022-08-08T04:35:22.360Z,2.00
2022-08-08T04:37:50.940Z,2.50
2022-08-08T04:40:18.961Z,2.53
2022-08-08T04:42:57.215Z,2.10
2022-08-08T04:45:25.948Z,2.40
2022-08-08T04:47:54.247Z,2.33
2022-08-08T04:50:25.418Z,2.60
2022-08-08T04:52:58.932Z,2.15
2022-08-08T04:55:37.654Z,2.38
2022-08-08T04:58:17.501Z,2.25
2022-08-08T05:00:48.374Z,2.80
2022-08-08T05:03:18.743Z,2.60
2022-08-08T05:06:13.536Z,2.17
2022-08-08T05:08:51.773Z,2.20
2022-08-08T05:11:23.794Z,2.78
2022-08-08T05:13:57.549Z,2.58
2022-08-08T05:16:48.316Z,2.40
2022-08-08T05:20:06.183Z,2.30
2022-08-08T05:22:06.096Z,2.47
2022-08-08T05:24:34.361Z,2.47
2022-08-08T05:27:04.835Z,2.30
2022-08-08T05:29:35.746Z,2.60
2022-08-08T05:32:06.600Z,2.22
2022-08-08T05:34:37.096Z,2.63
2022-08-08T05:37:16.053Z,2.30
2022-08-08T05:39:54.836Z,2.78
2022-08-08T05:42:42.218Z,2.20
2022-08-08T05:45:31.238Z,2.22
2022-08-08T05:48:01.650Z,2.47
2022-08-08T05:50:36.583Z,2.83
2022-08-08T05:53:55.402Z,2.78
2022-08-08T05:56:08.280Z,2.58
2022-08-08T05:58:57.449Z,2.60
2022-08-08T06:01:55.370Z,2.63
2022-08-08T06:04:22.847Z,2.85
2022-08-08T06:06:52.398Z,3.03
2022-08-08T06:09:59.079Z,2.90
2022-08-08T06:12:08.308Z,2.53
2022-08-08T06:14:35.827Z,2.53
2022-08-08T06:17:19.570Z,2.65
2022-08-08T06:19:48.587Z,2.72
2022-08-08T06:25:04.186Z,2.50
2022-08-08T06:27:34.929Z,2.63
2022-08-08T06:30:19.943Z,2.50
2022-08-08T06:32:56.010Z,2.60
2022-08-08T06:36:08.818Z,2.90
2022-08-08T06:38:14.433Z,3.00
2022-08-08T06:40:48.369Z,2.47
2022-08-08T06:43:18.235Z,2.60
2022-08-08T06:45:45.812Z,2.50
2022-08-08T06:48:16.894Z,2.55
2022-08-08T06:50:45.835Z,2.20
2022-08-08T06:53:17.249Z,2.33
2022-08-08T06:56:01.870Z,1.95
2022-08-08T06:58:33.864Z,2.00
2022-08-08T07:01:52.128Z,2.22
2022-08-08T07:04:37.314Z,2.22
2022-08-08T07:07:11.533Z,2.33
2022-08-08T07:09:56.296Z,2.15
2022-08-08T07:12:33.527Z,2.15
2022-08-08T07:15:11.479Z,2.20
2022-08-08T07:18:01.939Z,2.25
2022-08-08T07:20:45.935Z,2.22
2022-08-08T07:23:23.358Z,1.98
2022-08-08T07:25:54.574Z,2.47
2022-08-08T07:28:24.490Z,2.97
2022-08-08T07:30:59.982Z,2.45
2022-08-08T07:33:28.186Z,2.33
2022-08-08T07:36:08.406Z,2.55
2022-08-08T07:38:36.977Z,2.58
2022-08-08T07:41:05.762Z,2.45
2022-08-08T07:43:37.799Z,2.38
2022-08-08T07:46:23.503Z,2.70
2022-08-08T07:48:55.212Z,2.28
2022-08-08T07:51:45.069Z,2.17
2022-08-08T07:54:39.665Z,2.03
2022-08-08T07:57:17.385Z,2.53
2022-08-08T07:59:56.393Z,2.45
2022-08-08T08:02:37.188Z,2.42
2022-08-08T08:05:15.055Z,2.15
2022-08-08T08:07:45.876Z,2.65
2022-08-08T08:10:16.283Z,2.00
2022-08-08T08:12:47.817Z,2.30
2022-08-08T08:15:21.533Z,2.80
2022-08-08T08:17:56.063Z,2.50
2022-08-08T08:20:29.785Z,2.30
2022-08-08T08:22:58.047Z,2.22
2022-08-08T08:25:42.281Z,2.33
2022-08-08T08:28:21.511Z,2.20
2022-08-08T08:30:53.293Z,2.20
2022-08-08T08:33:21.152Z,2.45
2022-08-08T08:36:19.764Z,2.20
2022-08-08T08:38:37.566Z,2.20
2022-08-08T08:41:10.821Z,2.20
2022-08-08T08:43:46.391Z,2.17
2022-08-08T08:46:15.107Z,1.95
2022-08-08T08:48:49.222Z,2.17
2022-08-08T08:51:17.982Z,2.03
2022-08-08T08:53:55.885Z,2.05
2022-08-08T08:56:27.757Z,2.17
2022-08-08T08:58:56.669Z,2.03
2022-08-08T09:01:28.402Z,2.30
2022-08-08T09:04:01.227Z,2.00
2022-08-08T09:06:33.967Z,1.95
2022-08-08T09:09:18.868Z,1.80
2022-08-08T09:12:07.581Z,1.98
2022-08-08T09:14:43.177Z,2.15
2022-08-08T09:17:41.044Z,1.80
2022-08-08T09:22:02.793Z,1.70
2022-08-08T09:22:49.559Z,2.03
2022-08-08T09:25:17.873Z,1.80
2022-08-08T09:27:57.958Z,2.35
2022-08-08T09:30:28.182Z,1.80
2022-08-08T09:33:54.069Z,2.05
2022-08-08T09:35:50.929Z,1.88
2022-08-08T09:38:28.666Z,2.10
2022-08-08T09:41:04.089Z,1.60
2022-08-08T09:44:04.977Z,2.10
2022-08-08T09:46:25.767Z,1.90
2022-08-08T09:49:17.901Z,1.80
2022-08-08T09:52:06.553Z,1.92
2022-08-08T09:54:42.228Z,1.80
2022-08-08T09:57:11.833Z,1.75
2022-08-08T10:00:01.701Z,1.77
2022-08-08T10:02:40.041Z,1.80
2022-08-08T10:05:15.078Z,2.13
2022-08-08T10:07:47.261Z,1.80
2022-08-08T10:10:15.450Z,1.60
2022-08-08T10:12:54.381Z,1.80
2022-08-08T10:15:25.898Z,1.70
2022-08-08T10:18:06.304Z,1.75
2022-08-08T10:20:51.143Z,1.98
2022-08-08T10:23:41.609Z,2.13
2022-08-08T10:26:25.853Z,2.20
2022-08-08T10:29:06.451Z,1.90
2022-08-08T10:31:56.472Z,1.77
2022-08-08T10:34:27.282Z,1.83
2022-08-08T10:36:59.784Z,2.00
2022-08-08T10:39:42.961Z,2.20
2022-08-08T10:42:20.864Z,1.73
2022-08-08T10:44:49.484Z,2.00
2022-08-08T10:47:20.975Z,2.13
2022-08-08T10:50:01.266Z,2.00
2022-08-08T10:52:40.737Z,2.10
2022-08-08T10:55:15.392Z,1.90
2022-08-08T10:58:05.766Z,1.90
2022-08-08T11:00:39.270Z,1.83
2022-08-08T11:03:37.088Z,2.17
2022-08-08T11:06:12.633Z,2.10
2022-08-08T11:08:53.482Z,1.88
2022-08-08T11:11:32.844Z,1.88
2022-08-08T11:14:12.425Z,2.10
2022-08-08T11:16:46.363Z,1.75
2022-08-08T11:19:15.760Z,1.88
2022-08-08T11:21:55.583Z,2.00
2022-08-08T11:24:29.104Z,1.98
2022-08-08T11:26:58.563Z,2.10
2022-08-08T11:29:41.605Z,2.35
2022-08-08T11:32:15.928Z,2.38
2022-08-08T11:35:08.937Z,2.25
2022-08-08T11:38:35.828Z,1.92
2022-08-08T11:40:26.650Z,1.95
2022-08-08T11:42:55.807Z,2.00
2022-08-08T11:45:23.894Z,2.38
2022-08-08T11:48:02.719Z,2.20
2022-08-08T11:50:33.847Z,2.15
2022-08-08T11:53:06.206Z,2.25
2022-08-08T11:55:37.380Z,2.13
2022-08-08T11:58:15.654Z,2.20
2022-08-08T12:00:47.148Z,2.13
2022-08-08T12:03:16.995Z,2.42
2022-08-08T12:05:49.314Z,2.35
2022-08-08T12:08:17.266Z,2.30
2022-08-08T12:10:49.007Z,2.50
2022-08-08T12:13:38.057Z,1.70
2022-08-08T12:16:16.370Z,2.15
2022-08-08T12:18:53.373Z,1.90
2022-08-08T12:21:25.861Z,1.92
2022-08-08T12:24:10.361Z,1.95
2022-08-08T12:26:41.619Z,2.03
2022-08-08T12:29:25.921Z,2.10
2022-08-08T12:32:19.750Z,2.60
2022-08-08T12:34:53.733Z,2.00
2022-08-08T12:37:41.097Z,1.77
2022-08-08T12:40:22.722Z,2.13
2022-08-08T12:42:52.331Z,1.98
2022-08-08T12:45:59.516Z,2.10
2022-08-08T12:48:18.181Z,1.85
2022-08-08T12:50:58.554Z,2.17
2022-08-08T12:53:37.868Z,1.98
2022-08-08T12:56:18.916Z,2.40
2022-08-08T12:58:54.471Z,2.30
2022-08-08T13:01:36.875Z,2.17
2022-08-08T13:04:18.422Z,2.00
2022-08-08T13:06:58.807Z,1.95
2022-08-08T13:09:33.006Z,2.10
2022-08-08T13:12:24.725Z,2.15
2022-08-08T13:14:52.916Z,2.00
2022-08-08T13:18:07.825Z,1.90
2022-08-08T13:20:18.493Z,2.40
2022-08-08T13:22:46.558Z,1.88
2022-08-08T13:25:18.304Z,2.10
2022-08-08T13:27:56.469Z,1.85
2022-08-08T13:30:28.643Z,2.03
2022-08-08T13:33:04.051Z,2.10
2022-08-08T13:35:38.135Z,1.95
2022-08-08T13:38:08.645Z,2.13
2022-08-08T13:40:41.633Z,1.90
2022-08-08T13:43:12.914Z,2.20
2022-08-08T13:45:40.829Z,2.15
2022-08-08T13:48:14.954Z,2.22
2022-08-08T13:50:53.913Z,1.88
2022-08-08T13:53:34.167Z,2.30
2022-08-08T13:56:11.318Z,2.05
2022-08-08T13:58:57.450Z,2.00
2022-08-08T14:01:52.516Z,2.05
2022-08-08T14:04:25.942Z,2.20
2022-08-08T14:06:59.950Z,1.80
2022-08-08T14:10:04.485Z,1.73
2022-08-08T14:12:26.217Z,1.67
2022-08-08T14:14:55.707Z,1.65
2022-08-08T14:17:58.606Z,1.83
2022-08-08T14:20:15.545Z,2.00
2022-08-08T14:23:21.023Z,1.75
2022-08-08T14:26:10.410Z,1.98
2022-08-08T14:28:40.072Z,2.10
2022-08-08T14:31:11.560Z,1.90
2022-08-08T14:33:55.739Z,1.80
2022-08-08T14:36:33.377Z,1.98
2022-08-08T14:39:02.962Z,1.60
2022-08-08T14:41:53.611Z,1.67
2022-08-08T14:44:35.062Z,1.67
2022-08-08T14:47:20.793Z,1.90
2022-08-08T14:50:02.387Z,1.65
2022-08-08T14:52:40.515Z,1.90
2022-08-08T14:55:10.647Z,1.48
2022-08-08T14:58:06.206Z,1.52
2022-08-08T15:00:27.696Z,1.80
2022-08-08T15:02:59.265Z,1.80
2022-08-08T15:05:53.801Z,1.50
2022-08-08T15:08:35.207Z,1.60
2022-08-08T15:11:09.110Z,1.50
2022-08-08T15:13:40.536Z,1.48
2022-08-08T15:16:25.508Z,1.63
2022-08-08T15:18:55.358Z,1.70
2022-08-08T15:21:22.829Z,1.70
2022-08-08T15:23:57.459Z,1.38
2022-08-08T15:26:25.718Z,1.60
2022-08-08T15:28:54.390Z,1.77
2022-08-08T15:32:02.792Z,1.90
2022-08-08T15:34:18.732Z,1.70
2022-08-08T15:37:03.730Z,1.40
2022-08-08T15:39:38.043Z,1.45
2022-08-08T15:42:13.180Z,1.35
2022-08-08T15:44:45.726Z,1.98
2022-08-08T15:47:16.259Z,1.60
2022-08-08T15:49:47.780Z,1.80
2022-08-08T15:52:16.337Z,1.45
2022-08-08T15:54:51.440Z,1.65
2022-08-08T15:57:19.745Z,1.60
2022-08-08T16:00:25.610Z,1.40
2022-08-08T16:02:36.418Z,1.70
2022-08-08T16:05:13.575Z,1.90
2022-08-08T16:07:53.163Z,1.65
2022-08-08T16:13:11.362Z,1.40
2022-08-08T16:13:32.076Z,1.42
2022-08-08T16:16:09.394Z,1.58
2022-08-08T16:18:44.680Z,1.70
2022-08-08T16:21:27.167Z,1.42
2022-08-08T16:23:56.233Z,1.60
2022-08-08T16:26:33.678Z,1.55
2022-08-08T16:29:07.790Z,1.70
2022-08-08T16:31:37.334Z,1.45
2022-08-08T16:34:05.456Z,1.58
2022-08-08T16:36:33.877Z,1.70
2022-08-08T16:39:09.865Z,1.65
2022-08-08T16:41:50.998Z,1.60
2022-08-08T16:44:28.119Z,1.88
2022-08-08T16:47:31.611Z,1.42
2022-08-08T16:50:13.820Z,1.80
2022-08-08T16:55:05.808Z,1.50
2022-08-08T16:55:52.925Z,1.80
2022-08-08T16:58:20.759Z,1.45
2022-08-08T17:00:48.792Z,1.67
2022-08-08T17:03:24.744Z,1.88
2022-08-08T17:06:02.921Z,1.77
2022-08-08T17:08:30.718Z,1.98
2022-08-08T17:11:10.325Z,1.70
2022-08-08T17:13:49.807Z,1.80
2022-08-08T17:16:26.166Z,1.60
2022-08-08T17:18:56.792Z,1.70
2022-08-08T17:21:26.419Z,1.50
2022-08-08T17:24:02.015Z,1.70
2022-08-08T17:26:31.293Z,1.90
2022-08-08T17:29:03.935Z,1.95
2022-08-08T17:31:44.743Z,2.05
2022-08-08T17:34:36.470Z,1.90
2022-08-08T17:37:03.701Z,1.90
2022-08-08T17:40:03.137Z,2.00
2022-08-08T17:42:22.653Z,2.22
2022-08-08T17:44:52.605Z,2.15
2022-08-08T17:47:27.294Z,2.28
2022-08-08T17:50:02.960Z,2.00
2022-08-08T17:52:35.585Z,2.25
2022-08-08T17:56:06.232Z,2.20
2022-08-08T17:57:52.885Z,2.60
2022-08-08T18:00:21.636Z,2.30
2022-08-08T18:03:07.389Z,2.22
2022-08-08T18:05:49.862Z,2.20
2022-08-08T18:08:24.671Z,2.10
2022-08-08T18:11:08.476Z,2.40
2022-08-08T18:13:42.066Z,2.85
2022-08-08T18:16:10.207Z,2.28
2022-08-08T18:18:42.947Z,2.33
2022-08-08T18:21:25.067Z,2.25
2022-08-08T18:24:00.639Z,2.25
2022-08-08T18:26:29.672Z,2.88
2022-08-08T18:28:57.741Z,2.47
2022-08-08T18:31:27.733Z,2.33
2022-08-08T18:34:12.357Z,2.47
2022-08-08T18:36:44.564Z,2.65
2022-08-08T18:39:16.392Z,2.38
2022-08-08T18:41:59.589Z,2.63
2022-08-08T18:44:32.705Z,2.40
2022-08-08T18:47:02.341Z,2.60
2022-08-08T18:49:54.883Z,2.65
2022-08-08T18:52:22.589Z,2.35
2022-08-08T18:54:59.823Z,2.30
2022-08-08T18:57:31.579Z,2.50
2022-08-08T19:00:04.836Z,2.47
2022-08-08T19:02:36.934Z,2.53
2022-08-08T19:05:15.754Z,2.85
2022-08-08T19:07:52.003Z,2.72
2022-08-08T19:10:20.337Z,2.72
2022-08-08T19:12:52.963Z,2.78
2022-08-08T19:15:23.685Z,2.97
2022-08-08T19:18:33.416Z,2.45
2022-08-08T19:20:43.002Z,2.72
2022-08-08T19:23:14.354Z,2.90
2022-08-08T19:26:02.042Z,2.90
2022-08-08T19:28:31.599Z,2.45
2022-08-08T19:31:09.460Z,2.53
2022-08-08T19:33:52.224Z,2.50
2022-08-08T19:36:28.270Z,2.45
2022-08-08T19:38:56.596Z,2.50
2022-08-08T19:41:29.212Z,2.47
2022-08-08T19:44:04.190Z,2.72
2022-08-08T19:46:41.284Z,3.10
2022-08-08T19:49:10.856Z,3.25
2022-08-08T19:51:43.305Z,2.75
2022-08-08T19:54:11.873Z,2.67
2022-08-08T19:56:41.495Z,2.95
2022-08-08T19:59:15.869Z,3.00
2022-08-08T20:02:01.659Z,2.95
2022-08-08T20:04:31.275Z,2.67
2022-08-08T20:07:05.590Z,2.53
2022-08-08T20:09:55.682Z,3.30
2022-08-08T20:12:31.998Z,2.63
2022-08-08T20:15:14.561Z,2.70
2022-08-08T20:17:45.275Z,3.08
2022-08-08T20:20:18.992Z,3.40
2022-08-08T20:22:48.647Z,3.70
2022-08-08T20:25:17.392Z,4.53
2022-08-08T20:27:49.471Z,3.63
2022-08-08T20:30:52.502Z,3.33
2022-08-08T20:33:19.969Z,2.90
2022-08-08T20:35:58.585Z,3.10
2022-08-08T20:38:32.937Z,2.70
2022-08-08T20:41:05.405Z,2.40
2022-08-08T20:43:43.874Z,3.13
2022-08-08T20:46:17.323Z,2.80
2022-08-08T20:48:44.994Z,3.13
2022-08-08T20:51:14.427Z,2.90
2022-08-08T20:53:59.324Z,2.90
2022-08-08T20:56:35.071Z,3.15
2022-08-08T20:59:05.642Z,3.20
2022-08-08T21:01:44.407Z,2.80
2022-08-08T21:04:23.327Z,2.55
2022-08-08T21:06:53.329Z,2.30
2022-08-08T21:09:21.981Z,2.97
2022-08-08T21:11:50.711Z,2.80
2022-08-08T21:14:30.308Z,2.88
2022-08-08T21:17:01.439Z,2.60
2022-08-08T21:19:44.547Z,3.00
2022-08-08T21:22:15.343Z,2.70
2022-08-08T21:24:52.839Z,3.40
2022-08-08T21:28:06.335Z,2.95
2022-08-08T21:30:18.909Z,3.42
2022-08-08T21:32:52.195Z,3.35
2022-08-08T21:36:19.182Z,3.40
2022-08-08T21:38:16.445Z,3.30
2022-08-08T21:40:55.964Z,2.97
2022-08-08T21:43:34.782Z,3.03
2022-08-08T21:48:07.513Z,3.42
2022-08-08T21:48:52.045Z,3.33
2022-08-08T21:54:32.653Z,2.83
2022-08-08T21:54:36.813Z,2.53
2022-08-08T21:56:57.300Z,2.88
2022-08-08T21:59:28.393Z,2.88
2022-08-08T22:02:15.940Z,2.70
2022-08-08T22:04:43.607Z,3.05
2022-08-08T22:07:11.449Z,2.95
2022-08-08T22:09:41.096Z,2.72
2022-08-08T22:12:16.995Z,3.10
2022-08-08T22:14:47.259Z,2.92
2022-08-08T22:17:18.439Z,2.78
2022-08-08T22:20:11.602Z,3.40
2022-08-08T22:22:38.222Z,3.90
2022-08-08T22:25:24.371Z,4.20
2022-08-08T22:28:04.718Z,3.80
2022-08-08T22:30:52.951Z,4.10
2022-08-08T22:33:22.247Z,3.33
2022-08-08T22:36:12.298Z,3.28
2022-08-08T22:38:48.852Z,2.90
2022-08-08T22:41:21.635Z,3.28
2022-08-08T22:44:02.304Z,3.13
2022-08-08T22:46:38.981Z,4.20
2022-08-08T22:49:09.380Z,3.28
2022-08-08T22:51:42.514Z,3.30
2022-08-08T22:54:30.438Z,3.28
2022-08-08T22:57:01.848Z,2.83
2022-08-08T22:59:52.825Z,3.83
2022-08-08T23:02:28.736Z,4.43
2022-08-08T23:04:56.485Z,4.72
2022-08-08T23:07:49.349Z,3.70
2022-08-08T23:10:13.532Z,2.80
2022-08-08T23:12:51.695Z,2.70
2022-08-08T23:16:37.931Z,2.72
2022-08-08T23:18:11.945Z,3.00
2022-08-08T23:20:39.772Z,2.55
2022-08-08T23:23:07.351Z,2.83
2022-08-08T23:25:45.087Z,4.22
2022-08-08T23:28:15.617Z,4.57
2022-08-08T23:30:46.028Z,3.30
2022-08-08T23:33:35.714Z,3.30
2022-08-08T23:36:08.059Z,2.63
2022-08-08T23:38:36.713Z,3.10
2022-08-08T23:41:12.190Z,3.38
2022-08-08T23:43:50.554Z,3.35
2022-08-08T23:49:07.322Z,3.13
2022-08-08T23:49:18.011Z,2.90
2022-08-08T23:52:06.595Z,2.90
2022-08-08T23:54:43.429Z,3.30
2022-08-08T23:57:26.738Z,3.38
